createdAt,value
2023-04-27T00:04:51.312Z,7.98
2023-04-27T00:09:54.318Z,7.82
2023-04-27T00:14:57.357Z,7.75
2023-04-27T00:20:00.838Z,7.79
2023-04-27T00:25:03.868Z,7.67
2023-04-27T00:30:08.458Z,7.64
2023-04-27T00:35:11.467Z,7.66
2023-04-27T00:40:14.131Z,7.50
2023-04-27T00:45:16.964Z,7.46
2023-04-27T00:50:30.265Z,7.47
2023-04-27T00:55:32.994Z,7.32
2023-04-27T01:00:40.465Z,6.95
2023-04-27T01:05:43.367Z,7.04
2023-04-27T01:10:46.173Z,6.78
2023-04-27T01:15:49.085Z,6.81
2023-04-27T01:20:51.218Z,6.66
2023-04-27T01:25:53.695Z,6.59
2023-04-27T01:30:56.679Z,6.55
2023-04-27T01:36:01.626Z,6.51
2023-04-27T01:41:05.721Z,6.63
2023-04-27T01:46:13.793Z,6.54
2023-04-27T01:51:16.281Z,6.45
2023-04-27T01:56:20.804Z,6.39
2023-04-27T02:01:24.814Z,6.43
2023-04-27T02:06:28.036Z,6.40
2023-04-27T02:11:30.863Z,6.26
2023-04-27T02:16:33.919Z,6.21
2023-04-27T02:21:37.341Z,6.25
2023-04-27T02:26:39.907Z,6.29
2023-04-27T02:31:42.669Z,6.26
2023-04-27T02:36:45.319Z,6.18
2023-04-27T02:41:47.951Z,6.00
2023-04-27T02:46:51.389Z,6.07
2023-04-27T02:51:53.702Z,6.11
2023-04-27T02:56:56.229Z,6.05
2023-04-27T03:01:59.117Z,6.03
2023-04-27T03:07:02.004Z,5.86
2023-04-27T03:12:06.362Z,5.77
2023-04-27T03:17:08.589Z,6.16
2023-04-27T03:22:10.858Z,6.17
2023-04-27T03:27:13.245Z,6.13
2023-04-27T03:32:15.741Z,5.94
2023-04-27T03:37:18.071Z,6.10
2023-04-27T03:42:20.459Z,6.06
2023-04-27T03:47:23.138Z,5.87
2023-04-27T03:52:26.722Z,5.93
2023-04-27T03:57:29.321Z,6.11
2023-04-27T04:02:32.051Z,6.23
2023-04-27T04:07:34.706Z,6.22
2023-04-27T04:12:37.586Z,6.34
2023-04-27T04:17:40.236Z,6.32
2023-04-27T04:22:44.391Z,6.32
2023-04-27T04:27:51.229Z,6.49
2023-04-27T04:32:53.498Z,6.44
2023-04-27T04:37:56.473Z,6.39
2023-04-27T04:42:58.702Z,6.35
2023-04-27T04:48:02.325Z,6.29
2023-04-27T04:53:05.036Z,6.40
2023-04-27T04:58:08.451Z,6.32
2023-04-27T05:03:11.200Z,6.27
2023-04-27T05:08:13.869Z,6.34
2023-04-27T05:13:16.862Z,6.39
2023-04-27T05:18:19.603Z,6.50
2023-04-27T05:23:22.187Z,6.46
2023-04-27T05:28:24.853Z,6.47
2023-04-27T05:33:26.939Z,6.73
2023-04-27T05:38:29.593Z,6.77
2023-04-27T05:43:32.119Z,6.73
2023-04-27T05:48:34.812Z,6.67
2023-04-27T05:53:37.142Z,6.63
2023-04-27T05:58:39.699Z,6.67
2023-04-27T06:03:42.587Z,6.70
2023-04-27T06:08:45.303Z,6.70
2023-04-27T06:13:48.141Z,6.67
2023-04-27T06:18:51.934Z,6.59
2023-04-27T06:23:54.452Z,6.62
2023-04-27T06:28:57.093Z,6.67
2023-04-27T06:34:00.033Z,6.60
2023-04-27T06:39:02.394Z,6.54
2023-04-27T06:44:05.216Z,6.50
2023-04-27T06:49:07.861Z,6.56
2023-04-27T06:54:10.054Z,6.60
2023-04-27T06:59:12.752Z,6.67
2023-04-27T07:04:15.956Z,6.69
2023-04-27T07:09:27.065Z,6.79
2023-04-27T07:14:30.199Z,6.85
2023-04-27T07:19:32.715Z,7.15
2023-04-27T07:24:35.232Z,7.31
2023-04-27T07:29:38.109Z,7.23
2023-04-27T07:34:51.993Z,7.19
2023-04-27T07:39:55.993Z,7.51
2023-04-27T07:44:58.250Z,7.63
2023-04-27T07:50:01.090Z,7.78
2023-04-27T07:55:04.818Z,7.89
2023-04-27T08:00:10.144Z,7.91
2023-04-27T08:05:15.910Z,7.99
2023-04-27T08:10:18.945Z,7.85
2023-04-27T08:15:21.993Z,8.00
2023-04-27T08:20:24.656Z,8.23
2023-04-27T08:25:27.360Z,8.51
2023-04-27T08:30:30.072Z,8.31
2023-04-27T08:35:32.655Z,8.34
2023-04-27T08:40:35.202Z,8.45
2023-04-27T08:45:38.303Z,8.51
2023-04-27T08:50:45.657Z,8.59
2023-04-27T08:55:48.299Z,8.78
2023-04-27T09:00:52.654Z,9.31
2023-04-27T09:06:05.111Z,9.28
2023-04-27T09:11:08.640Z,9.52
2023-04-27T09:16:17.273Z,9.78
2023-04-27T09:21:32.956Z,10.62
2023-04-27T09:26:35.537Z,11.37
2023-04-27T09:31:38.334Z,11.82
2023-04-27T09:36:40.740Z,11.10
2023-04-27T09:41:43.440Z,10.97
2023-04-27T09:46:49.055Z,10.66
2023-04-27T09:51:53.256Z,11.00
2023-04-27T09:57:13.116Z,10.97
2023-04-27T10:02:25.162Z,10.76
2023-04-27T10:07:29.937Z,10.86
2023-04-27T10:12:37.085Z,11.04
2023-04-27T10:17:39.883Z,11.04
2023-04-27T10:22:45.536Z,11.45
2023-04-27T10:27:55.431Z,11.83
2023-04-27T10:32:59.543Z,12.40
2023-04-27T10:38:18.869Z,12.26
2023-04-27T10:43:28.532Z,12.02
2023-04-27T10:48:31.271Z,11.98
2023-04-27T10:53:40.141Z,12.12
2023-04-27T10:58:48.977Z,12.18
2023-04-27T11:03:59.457Z,12.68
2023-04-27T11:09:02.423Z,12.91
2023-04-27T11:14:05.264Z,13.13
2023-04-27T11:19:07.898Z,13.47
2023-04-27T11:24:13.214Z,12.73
2023-04-27T11:29:17.859Z,13.20
2023-04-27T11:34:24.795Z,13.56
2023-04-27T11:39:39.087Z,13.00
2023-04-27T11:44:41.682Z,12.42
2023-04-27T11:49:48.803Z,12.53
2023-04-27T11:54:53.805Z,12.83
2023-04-27T12:00:00.604Z,12.68
2023-04-27T12:05:05.176Z,12.47
2023-04-27T12:10:09.425Z,12.79
2023-04-27T12:15:12.310Z,11.61
2023-04-27T12:20:14.784Z,11.63
2023-04-27T12:25:18.384Z,11.78
2023-04-27T12:30:22.326Z,11.57
2023-04-27T12:35:25.004Z,12.01
2023-04-27T12:40:27.697Z,11.75
2023-04-27T12:45:29.951Z,12.06
2023-04-27T12:50:33.354Z,12.12
2023-04-27T12:55:37.083Z,12.64
2023-04-27T13:00:39.834Z,12.73
2023-04-27T13:05:42.441Z,12.14
2023-04-27T13:10:45.384Z,11.92
2023-04-27T13:15:47.594Z,12.13
2023-04-27T13:20:50.208Z,12.78
2023-04-27T13:25:52.652Z,13.01
2023-04-27T13:30:55.238Z,13.34
2023-04-27T13:35:58.095Z,13.58
2023-04-27T13:41:00.903Z,13.78
2023-04-27T13:46:04.052Z,14.12
2023-04-27T13:51:06.141Z,14.12
2023-04-27T13:56:08.721Z,12.89
2023-04-27T14:01:11.647Z,12.69
2023-04-27T14:06:15.263Z,12.48
2023-04-27T14:11:19.385Z,12.09
2023-04-27T14:16:22.348Z,11.21
2023-04-27T14:21:26.196Z,10.53
2023-04-27T14:26:29.032Z,10.34
2023-04-27T14:31:31.931Z,10.21
2023-04-27T14:36:35.161Z,10.32
2023-04-27T14:41:37.963Z,11.06
2023-04-27T14:46:41.101Z,11.39
2023-04-27T14:51:43.915Z,11.58
2023-04-27T14:56:47.057Z,11.39
2023-04-27T15:01:49.790Z,10.95
2023-04-27T15:06:52.061Z,10.84
2023-04-27T15:11:54.595Z,10.35
2023-04-27T15:16:57.290Z,10.02
2023-04-27T15:21:59.884Z,9.12
2023-04-27T15:27:04.188Z,9.02
2023-04-27T15:32:06.874Z,9.13
2023-04-27T15:37:08.938Z,9.31
2023-04-27T15:42:11.451Z,9.49
2023-04-27T15:47:15.623Z,9.22
2023-04-27T15:52:17.962Z,9.20
2023-04-27T15:57:20.668Z,8.88
2023-04-27T16:02:23.493Z,9.18
2023-04-27T16:07:26.202Z,9.09
2023-04-27T16:12:29.693Z,9.32
2023-04-27T16:17:36.609Z,9.37
2023-04-27T16:22:39.576Z,9.15
2023-04-27T16:27:42.867Z,9.15
2023-04-27T16:32:45.613Z,8.96
2023-04-27T16:37:50.166Z,8.87
2023-04-27T16:42:52.412Z,8.86
2023-04-27T16:47:55.775Z,8.85
2023-04-27T16:53:06.732Z,8.80
2023-04-27T16:58:09.376Z,8.71
2023-04-27T17:03:12.265Z,8.40
2023-04-27T17:08:15.376Z,8.58
2023-04-27T17:13:18.069Z,8.54
2023-04-27T17:18:21.157Z,8.25
2023-04-27T17:23:23.997Z,7.75
2023-04-27T17:28:26.610Z,7.70
2023-04-27T17:33:28.706Z,7.58
2023-04-27T17:38:31.479Z,7.66
2023-04-27T17:43:34.096Z,7.54
2023-04-27T17:48:37.512Z,7.60
2023-04-27T17:53:39.674Z,7.52
2023-04-27T17:58:42.215Z,7.23
2023-04-27T18:03:44.817Z,7.09
2023-04-27T18:08:48.329Z,7.08
2023-04-27T18:13:51.616Z,6.86
2023-04-27T18:18:53.657Z,6.82
2023-04-27T18:23:57.016Z,7.01
2023-04-27T18:28:59.619Z,7.01
2023-04-27T18:34:02.156Z,6.87
2023-04-27T18:39:04.963Z,6.75
2023-04-27T18:44:07.568Z,6.68
2023-04-27T18:49:10.190Z,6.65
2023-04-27T18:54:12.915Z,6.85
2023-04-27T18:59:15.825Z,6.80
2023-04-27T19:04:21.557Z,7.02
2023-04-27T19:09:27.501Z,7.11
2023-04-27T19:14:31.359Z,7.14
2023-04-27T19:19:33.830Z,7.31
2023-04-27T19:24:36.359Z,7.11
2023-04-27T19:29:56.851Z,7.03
2023-04-27T19:35:01.901Z,6.97
2023-04-27T19:40:04.983Z,6.86
2023-04-27T19:45:08.422Z,7.06
2023-04-27T19:50:11.674Z,6.94
2023-04-27T19:55:14.343Z,6.76
2023-04-27T20:00:17.230Z,7.02
2023-04-27T20:05:26.987Z,6.97
2023-04-27T20:10:29.782Z,6.93
2023-04-27T20:15:35.963Z,7.01
2023-04-27T20:20:38.260Z,6.99
2023-04-27T20:25:40.838Z,7.14
2023-04-27T20:30:44.439Z,7.16
2023-04-27T20:35:47.499Z,7.02
2023-04-27T20:40:52.833Z,7.27
2023-04-27T20:45:57.693Z,7.33
2023-04-27T20:51:00.948Z,6.87
2023-04-27T20:56:04.115Z,7.25
2023-04-27T21:01:06.765Z,7.34
2023-04-27T21:06:09.507Z,7.33
2023-04-27T21:11:12.329Z,7.36
2023-04-27T21:16:15.489Z,7.29
2023-04-27T21:21:18.116Z,7.37
2023-04-27T21:26:20.657Z,7.36
2023-04-27T21:31:23.462Z,7.30
2023-04-27T21:36:26.355Z,7.42
2023-04-27T21:41:29.214Z,7.30
2023-04-27T21:46:31.928Z,7.35
2023-04-27T21:51:35.063Z,7.23
2023-04-27T22:01:59.708Z,7.08
2023-04-27T22:07:02.669Z,7.24
2023-04-27T22:12:05.499Z,7.21
2023-04-27T22:17:08.141Z,7.24
2023-04-27T22:22:10.899Z,7.36
2023-04-27T22:27:13.491Z,7.13
2023-04-27T22:32:17.959Z,7.17
2023-04-27T22:37:21.061Z,7.10
2023-04-27T22:42:23.736Z,7.23
2023-04-27T22:47:26.448Z,7.35
2023-04-27T22:52:33.979Z,7.26
2023-04-27T22:57:36.750Z,7.30
2023-04-27T23:02:40.774Z,7.38
2023-04-27T23:07:43.669Z,7.32
2023-04-27T23:12:45.987Z,7.31
2023-04-27T23:17:48.648Z,7.47
2023-04-27T23:22:51.707Z,7.51
2023-04-27T23:27:54.385Z,7.57
2023-04-27T23:32:56.688Z,7.63
2023-04-27T23:37:59.544Z,7.61
2023-04-27T23:43:02.150Z,7.60
2023-04-27T23:48:05.867Z,7.74
2023-04-27T23:53:08.617Z,7.68
2023-04-27T23:58:11.224Z,7.67
